createdAt,value
2019-05-22T00:02:11.883Z,25.70
2019-05-22T00:04:44.215Z,26.57
2019-05-22T00:07:14.792Z,29.53
2019-05-22T00:09:46.385Z,23.40
2019-05-22T00:12:17.635Z,24.77
2019-05-22T00:14:47.876Z,27.60
2019-05-22T00:17:20.334Z,24.90
2019-05-22T00:19:50.079Z,26.07
2019-05-22T00:22:23.851Z,22.50
2019-05-22T00:24:55.137Z,24.53
2019-05-22T00:27:27.551Z,24.13
2019-05-22T00:29:57.621Z,21.67
2019-05-22T00:32:27.275Z,18.17
2019-05-22T00:34:56.999Z,23.17
2019-05-22T00:37:27.656Z,21.07
2019-05-22T00:39:58.491Z,18.90
2019-05-22T00:42:28.118Z,17.67
2019-05-22T00:44:59.198Z,22.00
2019-05-22T00:47:31.853Z,19.47
2019-05-22T00:50:04.210Z,17.03
2019-05-22T00:52:45.030Z,17.47
2019-05-22T00:55:25.109Z,20.77
2019-05-22T00:57:59.316Z,18.53
2019-05-22T01:00:30.688Z,19.37
2019-05-22T01:03:02.418Z,18.10
2019-05-22T01:05:32.035Z,19.87
2019-05-22T01:08:03.249Z,20.97
2019-05-22T01:10:33.526Z,19.13
2019-05-22T01:13:04.679Z,18.97
2019-05-22T01:15:35.824Z,17.13
2019-05-22T01:18:10.202Z,15.73
2019-05-22T01:20:42.221Z,16.67
2019-05-22T01:23:15.404Z,18.10
2019-05-22T01:25:46.104Z,16.73
2019-05-22T01:28:16.406Z,15.87
2019-05-22T01:30:50.470Z,17.17
2019-05-22T01:33:22.829Z,17.83
2019-05-22T01:36:00.603Z,16.57
2019-05-22T01:38:31.438Z,15.40
2019-05-22T01:41:14.952Z,16.77
2019-05-22T01:43:46.340Z,17.43
2019-05-22T01:46:16.377Z,18.33
2019-05-22T01:48:46.125Z,18.43
2019-05-22T01:51:18.218Z,16.60
2019-05-22T01:53:49.621Z,29.13
2019-05-22T01:56:21.037Z,18.07
2019-05-22T01:58:50.742Z,20.87
2019-05-22T02:01:22.013Z,20.47
2019-05-22T02:03:53.514Z,19.73
2019-05-22T02:06:25.028Z,17.87
2019-05-22T02:09:26.545Z,18.47
2019-05-22T02:12:13.801Z,19.80
2019-05-22T02:14:48.438Z,17.60
2019-05-22T02:17:22.425Z,19.53
2019-05-22T02:19:52.912Z,18.93
2019-05-22T02:22:23.609Z,19.13
2019-05-22T02:24:53.331Z,19.57
2019-05-22T02:27:24.289Z,19.57
2019-05-22T02:29:55.656Z,17.77
2019-05-22T02:32:26.401Z,14.90
2019-05-22T02:34:56.641Z,16.63
2019-05-22T02:37:27.544Z,17.10
2019-05-22T02:39:57.462Z,18.03
2019-05-22T02:42:31.185Z,14.33
2019-05-22T02:45:03.776Z,15.37
2019-05-22T02:47:36.683Z,16.83
2019-05-22T02:50:07.946Z,15.10
2019-05-22T02:52:38.163Z,14.77
2019-05-22T02:55:08.695Z,14.03
2019-05-22T02:57:38.460Z,12.70
2019-05-22T03:00:09.052Z,12.03
2019-05-22T03:02:52.904Z,12.53
2019-05-22T03:05:24.818Z,8.97
2019-05-22T03:07:54.810Z,10.43
2019-05-22T03:10:25.386Z,10.93
2019-05-22T03:12:55.364Z,9.73
2019-05-22T03:15:25.883Z,8.97
2019-05-22T03:18:04.115Z,9.77
2019-05-22T03:20:34.114Z,9.83
2019-05-22T03:23:33.606Z,8.03
2019-05-22T03:26:04.131Z,10.27
2019-05-22T03:28:35.112Z,9.30
2019-05-22T03:31:06.971Z,11.70
2019-05-22T03:33:37.118Z,11.73
2019-05-22T03:36:15.067Z,10.03
2019-05-22T03:38:45.215Z,9.37
2019-05-22T03:41:15.598Z,12.03
2019-05-22T03:43:48.579Z,8.70
2019-05-22T03:46:34.584Z,10.20
2019-05-22T03:49:05.575Z,9.93
2019-05-22T03:51:35.833Z,9.73
2019-05-22T03:54:06.669Z,8.57
2019-05-22T03:56:41.385Z,11.33
2019-05-22T03:59:11.269Z,10.20
2019-05-22T04:01:41.233Z,10.30
2019-05-22T04:04:11.151Z,9.20
2019-05-22T04:06:42.150Z,8.83
2019-05-22T04:09:23.979Z,10.90
2019-05-22T04:11:55.336Z,11.27
2019-05-22T04:14:34.452Z,11.43
2019-05-22T04:17:07.593Z,9.77
2019-05-22T04:19:49.296Z,8.27
2019-05-22T04:22:10.488Z,11.70
2019-05-22T04:24:41.827Z,13.57
2019-05-22T04:27:12.455Z,10.97
2019-05-22T04:29:42.997Z,13.27
2019-05-22T04:32:15.844Z,7.37
2019-05-22T04:34:45.995Z,9.90
2019-05-22T04:37:16.412Z,9.93
2019-05-22T04:39:48.199Z,9.03
2019-05-22T04:42:19.295Z,12.53
2019-05-22T04:45:15.947Z,9.23
2019-05-22T04:48:01.852Z,10.87
2019-05-22T04:50:32.376Z,12.20
2019-05-22T04:53:03.565Z,11.10
2019-05-22T04:55:33.298Z,12.07
2019-05-22T04:58:07.904Z,12.70
2019-05-22T05:00:37.632Z,12.10
2019-05-22T05:03:09.154Z,11.80
2019-05-22T05:05:43.319Z,14.97
2019-05-22T05:08:15.308Z,14.40
2019-05-22T05:10:49.819Z,9.03
2019-05-22T05:13:22.071Z,11.67
2019-05-22T05:15:51.649Z,14.00
2019-05-22T05:18:21.260Z,10.90
2019-05-22T05:20:50.904Z,11.83
2019-05-22T05:23:20.529Z,8.57
2019-05-22T05:25:50.493Z,9.60
2019-05-22T05:28:20.495Z,13.10
2019-05-22T05:30:52.367Z,11.73
2019-05-22T05:33:24.053Z,13.43
2019-05-22T05:35:54.186Z,11.40
2019-05-22T05:38:34.141Z,11.90
2019-05-22T05:41:04.991Z,10.27
2019-05-22T05:43:36.565Z,11.47
2019-05-22T05:46:06.322Z,10.90
2019-05-22T05:48:38.873Z,11.97
2019-05-22T05:51:16.387Z,11.03
2019-05-22T05:54:06.337Z,12.20
2019-05-22T05:56:39.281Z,11.03
2019-05-22T05:59:09.991Z,12.10
2019-05-22T06:01:44.825Z,11.80
2019-05-22T06:04:34.047Z,8.67
2019-05-22T06:07:02.004Z,9.97
2019-05-22T06:09:34.100Z,11.70
2019-05-22T06:12:06.072Z,12.50
2019-05-22T06:14:36.824Z,10.50
2019-05-22T06:17:47.741Z,12.70
2019-05-22T06:20:20.421Z,10.00
2019-05-22T06:23:27.901Z,10.50
2019-05-22T06:25:59.394Z,11.80
2019-05-22T06:28:38.484Z,12.67
2019-05-22T06:31:13.626Z,9.87
2019-05-22T06:33:43.827Z,10.40
2019-05-22T06:36:16.653Z,8.20
2019-05-22T06:39:00.307Z,10.53
2019-05-22T06:41:32.951Z,8.27
2019-05-22T06:44:34.103Z,8.83
2019-05-22T06:47:06.574Z,9.73
2019-05-22T06:49:39.103Z,9.63
2019-05-22T06:52:09.471Z,11.27
2019-05-22T06:54:39.515Z,14.43
2019-05-22T06:57:12.768Z,9.10
2019-05-22T06:59:44.317Z,7.23
2019-05-22T07:02:15.398Z,10.30
2019-05-22T07:04:45.382Z,6.30
2019-05-22T07:07:16.256Z,7.60
2019-05-22T07:09:46.776Z,7.00
2019-05-22T07:12:20.670Z,7.03
2019-05-22T07:15:12.148Z,7.60
2019-05-22T07:17:43.514Z,6.20
2019-05-22T07:20:15.821Z,6.00
2019-05-22T07:22:45.857Z,5.43
2019-05-22T07:25:20.097Z,6.07
2019-05-22T07:27:50.511Z,4.73
2019-05-22T07:30:20.072Z,5.30
2019-05-22T07:32:51.750Z,5.80
2019-05-22T07:35:22.399Z,7.00
2019-05-22T07:37:53.905Z,6.80
2019-05-22T07:40:24.085Z,6.03
2019-05-22T07:42:54.184Z,3.70
2019-05-22T07:45:27.228Z,5.23
2019-05-22T07:47:57.595Z,4.93
2019-05-22T07:50:29.226Z,8.67
2019-05-22T07:52:59.299Z,4.50
2019-05-22T07:55:32.318Z,4.10
2019-05-22T07:58:12.652Z,6.20
2019-05-22T08:00:47.971Z,9.73
2019-05-22T08:03:22.965Z,6.63
2019-05-22T08:05:56.707Z,6.63
2019-05-22T08:08:33.128Z,7.70
2019-05-22T08:11:05.551Z,6.87
2019-05-22T08:13:36.083Z,4.27
2019-05-22T08:16:09.397Z,5.23
2019-05-22T08:18:39.801Z,7.13
2019-05-22T08:21:11.823Z,8.10
2019-05-22T08:23:42.793Z,5.47
2019-05-22T08:26:13.706Z,10.33
2019-05-22T08:28:44.015Z,6.60
2019-05-22T08:31:16.110Z,7.47
2019-05-22T08:33:45.894Z,10.47
2019-05-22T08:36:18.587Z,8.87
2019-05-22T08:38:49.439Z,8.07
2019-05-22T08:41:24.129Z,8.87
2019-05-22T08:44:14.482Z,7.03
2019-05-22T08:46:25.783Z,6.47
2019-05-22T08:48:56.486Z,8.80
2019-05-22T08:51:26.344Z,7.60
2019-05-22T08:53:57.504Z,7.20
2019-05-22T08:56:28.590Z,6.50
2019-05-22T08:58:58.971Z,8.77
2019-05-22T09:01:29.035Z,7.53
2019-05-22T09:03:59.995Z,8.23
2019-05-22T09:06:29.736Z,6.47
2019-05-22T09:08:59.579Z,6.50
2019-05-22T09:11:30.547Z,7.93
2019-05-22T09:14:01.340Z,5.40
2019-05-22T09:16:33.403Z,6.63
2019-05-22T09:19:04.913Z,4.83
2019-05-22T09:21:35.525Z,6.20
2019-05-22T09:24:08.508Z,4.70
2019-05-22T09:26:40.758Z,5.47
2019-05-22T09:29:11.239Z,7.30
2019-05-22T09:31:42.117Z,4.50
2019-05-22T09:34:12.235Z,7.70
2019-05-22T09:36:43.020Z,4.63
2019-05-22T09:39:12.790Z,5.37
2019-05-22T09:41:42.523Z,5.80
2019-05-22T09:44:15.265Z,6.90
2019-05-22T09:46:45.931Z,5.07
2019-05-22T09:49:15.631Z,8.83
2019-05-22T09:51:45.572Z,6.37
2019-05-22T09:54:16.584Z,5.37
2019-05-22T09:56:46.304Z,6.47
2019-05-22T09:59:16.171Z,7.47
2019-05-22T10:01:46.218Z,8.07
2019-05-22T10:04:15.967Z,6.10
2019-05-22T10:06:46.970Z,8.73
2019-05-22T10:09:17.050Z,8.60
2019-05-22T10:11:47.381Z,10.43
2019-05-22T10:14:18.389Z,9.20
2019-05-22T10:16:48.218Z,5.17
2019-05-22T10:19:19.860Z,5.67
2019-05-22T10:21:50.531Z,7.13
2019-05-22T10:24:22.717Z,7.23
2019-05-22T10:26:53.347Z,8.37
2019-05-22T10:29:23.230Z,6.20
2019-05-22T10:31:52.775Z,5.67
2019-05-22T10:34:22.355Z,7.90
2019-05-22T10:36:55.682Z,6.60
2019-05-22T10:39:26.778Z,6.03
2019-05-22T10:41:56.617Z,9.03
2019-05-22T10:44:27.152Z,7.47
2019-05-22T10:46:56.933Z,6.77
2019-05-22T10:49:26.877Z,6.70
2019-05-22T10:51:58.835Z,9.47
2019-05-22T10:54:29.233Z,8.70
2019-05-22T10:56:58.797Z,6.30
2019-05-22T10:59:28.807Z,6.40
2019-05-22T11:01:58.560Z,8.57
2019-05-22T11:04:30.037Z,8.17
2019-05-22T11:06:59.774Z,5.33
2019-05-22T11:09:31.546Z,8.13
2019-05-22T11:12:01.762Z,5.40
2019-05-22T11:14:32.355Z,7.20
2019-05-22T11:17:02.634Z,6.20
2019-05-22T11:19:32.941Z,11.80
2019-05-22T11:22:03.402Z,6.57
2019-05-22T11:24:33.061Z,7.03
2019-05-22T11:27:05.731Z,7.07
2019-05-22T11:29:35.312Z,9.10
2019-05-22T11:32:05.755Z,7.07
2019-05-22T11:34:38.925Z,8.53
2019-05-22T11:37:08.571Z,7.63
2019-05-22T11:39:41.167Z,5.77
2019-05-22T11:42:11.154Z,8.63
2019-05-22T11:44:41.135Z,5.93
2019-05-22T11:47:12.180Z,9.63
2019-05-22T11:49:43.134Z,7.40
2019-05-22T11:52:14.439Z,6.67
2019-05-22T11:54:44.600Z,6.60
2019-05-22T11:57:15.209Z,6.10
2019-05-22T11:59:45.290Z,8.63
2019-05-22T12:02:16.152Z,8.17
2019-05-22T12:04:48.927Z,7.43
2019-05-22T12:07:19.983Z,9.07
2019-05-22T12:09:49.822Z,6.63
2019-05-22T12:12:20.426Z,5.70
2019-05-22T12:14:53.089Z,7.50
2019-05-22T12:17:37.288Z,5.97
2019-05-22T12:19:55.132Z,6.30
2019-05-22T12:22:24.692Z,6.43
2019-05-22T12:24:54.442Z,5.87
2019-05-22T12:27:24.295Z,7.27
2019-05-22T12:29:54.342Z,5.43
2019-05-22T12:32:24.741Z,7.00
2019-05-22T12:34:57.626Z,5.17
2019-05-22T12:37:28.830Z,5.30
2019-05-22T12:40:00.791Z,7.17
2019-05-22T12:42:35.877Z,7.93
2019-05-22T12:45:08.623Z,5.87
2019-05-22T12:47:39.457Z,6.70
2019-05-22T12:50:10.601Z,7.30
2019-05-22T12:52:40.253Z,5.33
2019-05-22T12:55:11.177Z,6.23
2019-05-22T12:57:41.630Z,5.13
2019-05-22T13:00:16.342Z,5.60
2019-05-22T13:02:46.935Z,5.60
2019-05-22T13:05:19.623Z,6.03
2019-05-22T13:07:49.843Z,5.97
2019-05-22T13:10:20.186Z,12.27
2019-05-22T13:12:50.024Z,4.60
2019-05-22T13:15:20.386Z,4.40
2019-05-22T13:17:54.128Z,5.00
2019-05-22T13:20:41.942Z,7.27
2019-05-22T13:23:04.626Z,4.57
2019-05-22T13:25:38.921Z,4.73
2019-05-22T13:28:10.280Z,5.60
2019-05-22T13:30:43.986Z,4.17
2019-05-22T13:33:20.949Z,4.90
2019-05-22T13:35:53.571Z,3.90
2019-05-22T13:38:23.609Z,4.57
2019-05-22T13:40:55.234Z,5.27
2019-05-22T13:43:27.938Z,4.33
2019-05-22T13:45:57.958Z,4.53
2019-05-22T13:48:28.702Z,5.87
2019-05-22T13:51:00.265Z,6.20
2019-05-22T13:53:35.309Z,4.50
2019-05-22T13:56:08.824Z,5.43
2019-05-22T13:58:39.947Z,5.03
2019-05-22T14:01:10.094Z,4.07
2019-05-22T14:03:40.334Z,3.80
2019-05-22T14:06:11.871Z,4.73
2019-05-22T14:08:41.771Z,4.57
2019-05-22T14:11:12.554Z,4.60
2019-05-22T14:13:42.650Z,3.90
2019-05-22T14:16:12.888Z,4.30
2019-05-22T14:18:43.826Z,5.10
2019-05-22T14:21:13.385Z,4.73
2019-05-22T14:23:45.234Z,4.17
2019-05-22T14:26:15.320Z,5.37
2019-05-22T14:28:45.218Z,5.50
2019-05-22T14:31:15.101Z,5.80
2019-05-22T14:33:44.983Z,6.80
2019-05-22T14:36:15.125Z,7.60
2019-05-22T14:38:46.403Z,6.40
2019-05-22T14:41:19.445Z,6.17
2019-05-22T14:43:49.602Z,8.13
2019-05-22T14:46:19.186Z,6.37
2019-05-22T14:48:48.791Z,5.10
2019-05-22T14:51:20.464Z,4.67
2019-05-22T14:53:55.568Z,6.63
2019-05-22T14:56:26.402Z,5.50
2019-05-22T14:58:57.512Z,5.83
2019-05-22T15:01:29.821Z,6.37
2019-05-22T15:03:59.505Z,6.40
2019-05-22T15:06:29.244Z,5.80
2019-05-22T15:08:59.890Z,5.27
2019-05-22T15:11:30.134Z,5.83
2019-05-22T15:14:01.421Z,5.20
2019-05-22T15:16:31.990Z,5.90
2019-05-22T15:19:01.552Z,5.87
2019-05-22T15:21:31.817Z,6.80
2019-05-22T15:24:01.817Z,4.40
2019-05-22T15:26:31.457Z,4.50
2019-05-22T15:29:01.198Z,4.83
2019-05-22T15:31:31.094Z,5.40
2019-05-22T15:34:05.120Z,5.97
2019-05-22T15:36:35.730Z,7.20
2019-05-22T15:39:08.454Z,6.63
2019-05-22T15:41:39.485Z,6.87
2019-05-22T15:44:10.559Z,4.37
2019-05-22T15:46:41.422Z,5.43
2019-05-22T15:49:12.700Z,5.67
2019-05-22T15:51:45.471Z,6.43
2019-05-22T15:54:18.535Z,6.50
2019-05-22T15:56:49.070Z,7.43
2019-05-22T15:59:20.764Z,7.57
2019-05-22T16:01:51.268Z,4.33
2019-05-22T16:04:23.621Z,5.87
2019-05-22T16:06:53.447Z,5.63
2019-05-22T16:09:25.571Z,6.53
2019-05-22T16:11:56.595Z,5.90
2019-05-22T16:14:28.503Z,5.97
2019-05-22T16:16:59.355Z,4.13
2019-05-22T16:19:31.410Z,6.23
2019-05-22T16:22:05.282Z,5.77
2019-05-22T16:24:36.896Z,5.53
2019-05-22T16:27:08.298Z,4.37
2019-05-22T16:29:40.571Z,5.40
2019-05-22T16:32:13.389Z,7.47
2019-05-22T16:34:44.236Z,5.97
2019-05-22T16:37:16.897Z,6.17
2019-05-22T16:39:50.450Z,7.90
2019-05-22T16:42:22.400Z,6.27
2019-05-22T16:44:53.931Z,5.07
2019-05-22T16:47:25.304Z,4.63
2019-05-22T16:49:56.910Z,5.07
2019-05-22T16:52:30.294Z,5.73
2019-05-22T16:55:02.092Z,6.70
2019-05-22T16:57:33.722Z,6.87
2019-05-22T17:00:07.374Z,6.50
2019-05-22T17:02:41.697Z,6.17
2019-05-22T17:05:15.893Z,6.80
2019-05-22T17:07:47.008Z,4.77
2019-05-22T17:10:20.045Z,8.37
2019-05-22T17:12:54.680Z,5.10
2019-05-22T17:15:26.385Z,5.07
2019-05-22T17:17:56.985Z,6.80
2019-05-22T17:20:29.630Z,9.73
2019-05-22T17:23:00.909Z,4.63
2019-05-22T17:25:32.539Z,5.50
2019-05-22T17:28:04.586Z,5.33
2019-05-22T17:30:38.266Z,5.33
2019-05-22T17:33:13.545Z,5.80
2019-05-22T17:35:49.426Z,7.80
2019-05-22T17:38:23.658Z,6.47
2019-05-22T17:40:55.022Z,4.83
2019-05-22T17:43:26.761Z,5.77
2019-05-22T17:45:58.152Z,8.50
2019-05-22T17:48:32.019Z,5.23
2019-05-22T17:51:02.771Z,5.90
2019-05-22T17:53:34.264Z,6.67
2019-05-22T17:56:05.814Z,6.73
2019-05-22T17:58:36.192Z,7.17
2019-05-22T18:01:12.039Z,9.03
2019-05-22T18:03:42.598Z,5.63
2019-05-22T18:06:12.676Z,6.03
2019-05-22T18:08:44.744Z,6.63
2019-05-22T18:11:17.300Z,8.53
2019-05-22T18:14:01.297Z,5.17
2019-05-22T18:16:31.825Z,10.23
2019-05-22T18:19:01.373Z,8.43
2019-05-22T18:21:32.281Z,7.87
2019-05-22T18:24:02.557Z,8.13
2019-05-22T18:26:33.592Z,5.83
2019-05-22T18:29:03.311Z,7.10
2019-05-22T18:31:33.711Z,7.23
2019-05-22T18:34:04.809Z,6.30
2019-05-22T18:36:35.719Z,6.00
2019-05-22T18:39:08.954Z,7.57
2019-05-22T18:41:41.321Z,6.33
2019-05-22T18:44:10.891Z,9.00
2019-05-22T18:46:40.799Z,5.37
2019-05-22T18:49:10.342Z,7.43
2019-05-22T18:51:46.628Z,4.93
2019-05-22T18:54:18.957Z,7.43
2019-05-22T18:56:48.047Z,4.90
2019-05-22T18:59:17.608Z,4.27
2019-05-22T19:01:47.355Z,3.73
2019-05-22T19:04:16.903Z,7.03
2019-05-22T19:06:48.173Z,7.60
2019-05-22T19:09:17.866Z,6.47
2019-05-22T19:11:47.686Z,4.80
2019-05-22T19:14:18.251Z,6.10
2019-05-22T19:16:47.798Z,8.77
2019-05-22T19:19:18.022Z,5.60
2019-05-22T19:21:50.413Z,5.27
2019-05-22T19:24:20.523Z,4.97
2019-05-22T19:26:50.393Z,5.23
2019-05-22T19:29:21.721Z,5.10
2019-05-22T19:31:53.215Z,5.70
2019-05-22T19:34:23.329Z,5.40
2019-05-22T19:36:53.483Z,6.40
2019-05-22T19:39:23.456Z,7.60
2019-05-22T19:42:03.355Z,5.33
2019-05-22T19:44:25.508Z,5.20
2019-05-22T19:46:58.821Z,5.93
2019-05-22T19:49:30.788Z,7.10
2019-05-22T19:52:02.673Z,6.67
2019-05-22T19:54:34.896Z,6.27
2019-05-22T19:57:06.381Z,4.83
2019-05-22T19:59:39.295Z,5.90
2019-05-22T20:02:12.786Z,5.33
2019-05-22T20:04:46.019Z,6.00
2019-05-22T20:07:17.553Z,5.27
2019-05-22T20:09:48.442Z,6.20
2019-05-22T20:12:24.871Z,7.53
2019-05-22T20:14:54.425Z,5.70
2019-05-22T20:17:24.273Z,5.43
2019-05-22T20:19:54.290Z,6.97
2019-05-22T20:22:24.689Z,6.53
2019-05-22T20:24:57.723Z,7.23
2019-05-22T20:27:27.916Z,6.73
2019-05-22T20:29:57.874Z,7.73
2019-05-22T20:32:28.277Z,8.53
2019-05-22T20:35:01.880Z,7.90
2019-05-22T20:37:37.357Z,6.43
2019-05-22T20:40:11.865Z,9.13
2019-05-22T20:42:44.000Z,9.40
2019-05-22T20:45:17.398Z,10.17
2019-05-22T20:47:52.680Z,8.60
2019-05-22T20:50:25.438Z,9.43
2019-05-22T20:52:56.826Z,8.83
2019-05-22T20:55:28.647Z,6.90
2019-05-22T20:58:03.363Z,6.73
2019-05-22T21:00:36.634Z,10.33
2019-05-22T21:03:09.411Z,6.43
2019-05-22T21:05:43.471Z,8.33
2019-05-22T21:08:17.042Z,8.10
2019-05-22T21:10:52.077Z,7.87
2019-05-22T21:13:27.901Z,8.13
2019-05-22T21:15:59.037Z,7.70
2019-05-22T21:18:31.598Z,8.07
2019-05-22T21:21:03.411Z,5.77
2019-05-22T21:23:34.842Z,6.03
2019-05-22T21:26:08.734Z,7.97
2019-05-22T21:28:41.645Z,8.00
2019-05-22T21:31:13.911Z,9.00
2019-05-22T21:33:45.120Z,8.10
2019-05-22T21:36:17.229Z,6.93
2019-05-22T21:38:51.097Z,6.17
2019-05-22T21:41:24.859Z,7.67
2019-05-22T21:43:56.341Z,7.23
2019-05-22T21:46:27.590Z,7.37
2019-05-22T21:49:01.629Z,8.63
2019-05-22T21:51:35.493Z,7.83
2019-05-22T21:54:08.271Z,11.20
2019-05-22T21:56:41.010Z,9.43
2019-05-22T21:59:12.443Z,10.20
2019-05-22T22:01:45.591Z,9.60
2019-05-22T22:04:24.875Z,10.83
2019-05-22T22:07:01.272Z,12.60
2019-05-22T22:09:41.666Z,19.40
2019-05-22T22:12:17.430Z,14.50
2019-05-22T22:14:53.154Z,17.03
2019-05-22T22:17:24.809Z,17.43
2019-05-22T22:19:55.549Z,16.53
2019-05-22T22:22:28.292Z,19.07
2019-05-22T22:24:58.988Z,17.43
2019-05-22T22:27:29.424Z,19.17
2019-05-22T22:29:58.986Z,18.17
2019-05-22T22:32:30.365Z,15.47
2019-05-22T22:35:00.079Z,17.67
2019-05-22T22:37:31.302Z,19.23
2019-05-22T22:40:02.637Z,14.90
2019-05-22T22:42:36.759Z,14.80
2019-05-22T22:45:09.769Z,15.63
2019-05-22T22:47:42.978Z,19.23
2019-05-22T22:50:13.837Z,14.23
2019-05-22T22:52:45.810Z,15.13
2019-05-22T22:55:17.485Z,14.00
2019-05-22T22:57:48.533Z,13.10
2019-05-22T23:00:20.517Z,15.93
2019-05-22T23:02:50.654Z,14.97
2019-05-22T23:05:20.489Z,15.03
2019-05-22T23:07:51.038Z,13.93
2019-05-22T23:10:23.775Z,13.13
2019-05-22T23:12:59.558Z,13.07
2019-05-22T23:15:29.940Z,13.07
2019-05-22T23:18:02.254Z,13.23
2019-05-22T23:20:30.232Z,13.77
2019-05-22T23:22:58.726Z,14.20
2019-05-22T23:25:28.450Z,13.07
2019-05-22T23:27:59.160Z,13.60
2019-05-22T23:30:29.547Z,13.43
2019-05-22T23:32:59.127Z,14.50
2019-05-22T23:35:30.387Z,14.03
2019-05-22T23:38:02.550Z,14.00
2019-05-22T23:40:39.860Z,11.57
2019-05-22T23:43:17.250Z,13.40
2019-05-22T23:45:49.745Z,13.33
2019-05-22T23:48:19.919Z,12.80
2019-05-22T23:50:49.594Z,12.60
2019-05-22T23:53:20.967Z,13.20
2019-05-22T23:55:50.543Z,12.93
2019-05-22T23:58:20.381Z,13.23
